Map

Track Data

SID SEASON NUMBER BASIN SUBBASIN NAME ISO_TIME NATURE LAT LON WMO_WIND WMO_PRES WMO_AGENCY TRACK_TYPE DIST2LAND LANDFALL IFLAG USA_AGENCY USA_ATCF_ID USA_LAT USA_LON USA_RECORD USA_STATUS USA_WIND USA_PRES USA_SSHS USA_R34_NE USA_R34_SE USA_R34_SW USA_R34_NW USA_R50_NE USA_R50_SE USA_R50_SW USA_R50_NW USA_R64_NE USA_R64_SE USA_R64_SW USA_R64_NW USA_POCI USA_ROCI USA_RMW USA_EYE TOKYO_LAT TOKYO_LON TOKYO_GRADE TOKYO_WIND TOKYO_PRES TOKYO_R50_DIR TOKYO_R50_LONG TOKYO_R50_SHORT TOKYO_R30_DIR TOKYO_R30_LONG TOKYO_R30_SHORT TOKYO_LAND CMA_LAT CMA_LON CMA_CAT CMA_WIND CMA_PRES HKO_LAT HKO_LON HKO_CAT HKO_WIND HKO_PRES NEWDELHI_LAT NEWDELHI_LON NEWDELHI_GRADE NEWDELHI_WIND NEWDELHI_PRES NEWDELHI_CI NEWDELHI_DP NEWDELHI_POCI REUNION_LAT REUNION_LON REUNION_TYPE REUNION_WIND REUNION_PRES REUNION_TNUM REUNION_CI REUNION_RMW REUNION_R34_NE REUNION_R34_SE REUNION_R34_SW REUNION_R34_NW REUNION_R50_NE REUNION_R50_SE REUNION_R50_SW REUNION_R50_NW REUNION_R64_NE REUNION_R64_SE REUNION_R64_SW REUNION_R64_NW BOM_LAT BOM_LON BOM_TYPE BOM_WIND BOM_PRES BOM_TNUM BOM_CI BOM_RMW BOM_R34_NE BOM_R34_SE BOM_R34_SW BOM_R34_NW BOM_R50_NE BOM_R50_SE BOM_R50_SW BOM_R50_NW BOM_R64_NE BOM_R64_SE BOM_R64_SW BOM_R64_NW BOM_ROCI BOM_POCI BOM_EYE BOM_POS_METHOD BOM_PRES_METHOD NADI_LAT NADI_LON NADI_CAT NADI_WIND NADI_PRES WELLINGTON_LAT WELLINGTON_LON WELLINGTON_WIND WELLINGTON_PRES DS824_LAT DS824_LON DS824_STAGE DS824_WIND DS824_PRES TD9636_LAT TD9636_LON TD9636_STAGE TD9636_WIND TD9636_PRES TD9635_LAT TD9635_LON TD9635_WIND TD9635_PRES TD9635_ROCI NEUMANN_LAT NEUMANN_LON NEUMANN_CLASS NEUMANN_WIND NEUMANN_PRES MLC_LAT MLC_LON MLC_CLASS MLC_WIND MLC_PRES USA_GUST BOM_GUST BOM_GUST_PER REUNION_GUST REUNION_GUST_PER USA_SEAHGT USA_SEARAD_NE USA_SEARAD_SE USA_SEARAD_SW USA_SEARAD_NW STORM_SPEED STORM_DIR
1920250N17090 1920 37 NI BB NOT_NAMED 1920-09-06 00:00:00 TS 16.8000 90.1000 main 446 446 _________O____ -1 16.8000 90.1000 TC 30 5 285
1920250N17090 1920 37 NI BB NOT_NAMED 1920-09-06 03:00:00 TS 16.8601 89.8633 main 465 465 _________PO___ -1 16.8901 89.7450 TC 30 16.8000 90.1000 1 6 287
1920250N17090 1920 37 NI BB NOT_NAMED 1920-09-06 06:00:00 TS 16.9683 89.5408 main 468 438 _________OP___ -1 17.0000 89.4000 TC 30 16.9208 89.7519 1 7 291
1920250N17090 1920 37 NI BB NOT_NAMED 1920-09-06 09:00:00 TS 17.0999 89.2212 main 438 416 _________PP___ -1 17.1425 89.0775 TC 30 17.0431 89.4128 1 6 295
1920250N17090 1920 37 NI BB NOT_NAMED 1920-09-06 12:00:00 TS 17.2344 88.9462 main 409 378 _________OP___ -1 17.3000 88.8000 TC 30 17.1688 89.0924 1 6 299
1920250N17090 1920 37 NI BB NOT_NAMED 1920-09-06 15:00:00 TS 17.3750 88.6925 main 378 356 _________PO___ -1 17.4499 88.5849 TC 30 17.3000 88.8000 1 5 302
1920250N17090 1920 37 NI BB NOT_NAMED 1920-09-06 18:00:00 TS 17.5193 88.4718 main 356 325 _________OP___ -1 17.6000 88.4000 TC 30 17.4386 88.5437 1 5 305
1920250N17090 1920 37 NI BB NOT_NAMED 1920-09-06 21:00:00 TS 17.6674 88.2550 main 325 304 _________PP___ -1 17.7500 88.1850 TC 30 17.5848 88.3249 1 5 308
1920250N17090 1920 37 NI BB NOT_NAMED 1920-09-07 00:00:00 TS 17.8193 88.0719 main 304 273 _________OP___ -1 17.9000 88.0000 TC 30 17.7386 88.1437 1 4 315
1920250N17090 1920 37 NI BB NOT_NAMED 1920-09-07 03:00:00 TS 17.9712 87.9387 main 273 258 _________PO___ -1 18.0425 87.8775 TC 30 17.9000 88.0000 1 4 325
1920250N17090 1920 37 NI BB NOT_NAMED 1920-09-07 06:00:00 TS 18.1318 87.8424 main 258 240 _________OP___ -1 18.2000 87.8000 TC 30 18.0636 87.8848 1 4 335
1920250N17090 1920 37 NI BB NOT_NAMED 1920-09-07 09:00:00 TS 18.3137 87.7736 main 240 216 _________PP___ -1 18.3925 87.7425 TC 30 18.2349 87.8048 1 4 343
1920250N17090 1920 37 NI BB NOT_NAMED 1920-09-07 12:00:00 TS 18.5068 87.7237 main 216 199 _________OP___ -1 18.6000 87.7000 TC 30 18.4137 87.7474 1 4 346
1920250N17090 1920 37 NI BB NOT_NAMED 1920-09-07 15:00:00 TS 18.7000 87.6750 main 199 175 _________PO___ -1 18.8000 87.6500 TC 30 18.6000 87.7000 1 4 346
1920250N17090 1920 37 NI BB NOT_NAMED 1920-09-07 18:00:00 TS 18.8842 87.6193 main 175 161 _________OP___ -1 19.0000 87.6000 TC 30 18.7684 87.6387 1 4 344
1920250N17090 1920 37 NI BB NOT_NAMED 1920-09-07 21:00:00 TS 19.0625 87.5674 main 161 139 _________PP___ -1 19.1775 87.5500 TC 30 18.9475 87.5849 1 4 346
1920250N17090 1920 37 NI BB NOT_NAMED 1920-09-08 00:00:00 TS 19.2764 87.5193 main 139 122 _________OP___ -1 19.4000 87.5000 TC 30 19.1528 87.5387 1 5 350
1920250N17090 1920 37 NI BB NOT_NAMED 1920-09-08 03:00:00 TS 19.5638 87.4713 main 114 85 _________PO___ -1 19.7275 87.4426 TC 30 19.4000 87.5000 1 6 354
1920250N17090 1920 37 NI BB NOT_NAMED 1920-09-08 06:00:00 TS 19.9095 87.4419 main 85 68 _________OP___ -1 20.1000 87.4000 TC 30 19.7190 87.4838 1 7 357
1920250N17090 1920 37 NI BB NOT_NAMED 1920-09-08 09:00:00 TS 20.2675 87.4397 main 61 43 _________PP___ -1 20.4575 87.4074 TC 30 20.0774 87.4721 1 7 358
1920250N17090 1920 37 NI BB NOT_NAMED 1920-09-08 12:00:00 TS 20.6236 87.4247 main 43 41 _________OP___ -1 20.8000 87.4000 TC 30 20.4471 87.4494 1 7 354
1920250N17090 1920 37 NI BB NOT_NAMED 1920-09-08 15:00:00 TS 20.9575 87.3613 main 47 38 _________PO___ -1 21.1150 87.3225 TC 30 20.8000 87.4000 1 6 346
1920250N17090 1920 37 NI BB NOT_NAMED 1920-09-08 18:00:00 TS 21.2483 87.2579 main 38 0 _________OP___ -1 21.4000 87.2000 TC 30 21.0965 87.3159 1 6 339
1920250N17090 1920 37 NI BB NOT_NAMED 1920-09-08 21:00:00 TS 21.5112 87.1336 main 0 0 _________PP___ -1 21.6500 87.0649 TC 30 21.3724 87.2023 1 6 334
1920250N17090 1920 37 NI BB NOT_NAMED 1920-09-09 00:00:00 TS 21.7686 86.9813 main 0 0 _________OP___ -1 21.9000 86.9000 TC 30 21.6371 87.0626 1 6 330
1920250N17090 1920 37 NI BB NOT_NAMED 1920-09-09 03:00:00 TS 22.0500 86.8038 main 0 0 _________PO___ -1 22.2000 86.7075 TC 30 21.9000 86.9000 1 7 329
1920250N17090 1920 37 NI BB NOT_NAMED 1920-09-09 06:00:00 TS 22.3314 86.6167 main 0 0 _________OP___ -1 22.5000 86.5000 TC 30 22.1627 86.7334 1 6 327
1920250N17090 1920 37 NI BB NOT_NAMED 1920-09-09 09:00:00 TS 22.5849 86.4258 main 0 0 _________PP___ -1 22.7424 86.3073 TC 30 22.4274 86.5444 1 6 325
1920250N17090 1920 37 NI BB NOT_NAMED 1920-09-09 12:00:00 TS 22.8517 86.2166 main 0 0 _________OP___ -1 23.0000 86.1000 TC 30 22.7033 86.3332 1 7 325
1920250N17090 1920 37 NI BB NOT_NAMED 1920-09-09 15:00:00 TS 23.1675 85.9825 main 0 0 _________PO___ -1 23.3350 85.8649 TC 30 23.0000 86.1000 1 8 325
1920250N17090 1920 37 NI BB NOT_NAMED 1920-09-09 18:00:00 TS 23.4851 85.7403 main 0 0 _________OP___ -1 23.7000 85.6000 TC 30 23.3240 85.8456 1 8 324
1920250N17090 1920 37 NI BB NOT_NAMED 1920-09-09 21:00:00 TS 23.8243 85.4676 main 0 0 _________PP___ -1 24.0551 85.3078 TC 30 23.6705 85.5741 1 8 323
1920250N17090 1920 37 NI BB NOT_NAMED 1920-09-10 00:00:00 TS 24.1545 85.1937 main 0 0 _________OP___ -1 24.4000 85.0000 TC 30 24.0317 85.2905 1 7 323
1920250N17090 1920 37 NI BB NOT_NAMED 1920-09-10 03:00:00 NR 24.4000 85.0000 main 0 __________O___ -1 TC 24.4000 85.0000 1 6 324

About IBTrACS Database

This database is a web-friendly format of International Best Track Archive for Climate Stewardship (IBTrACS), a global best track data archive curated by NOAA dating back to 1842.

Updated: 2021-11-26